005  
SHUS65 KGJT 212024  
FWOGJT  
 
DAILY FIRE WEATHER OBSERVATION  
NATIONAL WEATHER SERVICE GRAND JUNCTION CO  
212 PM MDT SAT APR 21 2018  
 
STATE OF THE WEATHER (W) 1  
DRY BULB TEMPERATURE 59 DEGREES FAHRENHEIT  
RELATIVE HUMIDITY (RH) 42 PERCENT  
LIGHTNING ACTIVITY LEVEL  
(LAL - MIDNIGHT TO 2 PM) 1  
WIND DIRECTION C DEGREES (C IF CALM)  
WIND SPEED 0 MPH  
MAX TEMP (2 PM - 2 PM) 60 DEGREES FAHRENHEIT  
MIN TEMP (2 PM - 2 PM) 41 DEGREES FAHRENHEIT  
MAX RH (2 PM - 2 PM) 96 PERCENT  
MIN RH (2 PM - 2 PM) 42 PERCENT  
PCPN DURATION 4.1 HOURS  
PCPN AMT (2 PM - 2 PM) 0.05 INCHES  
LAL (2 PM - 2 PM) 1  
 

 
 
METAR KGJT 211953Z VRB05KT 10SM SCT050 BKN065 15/02 A3016 RMK  
AO2 SLP186 T01500022  
 
CLICK HERE TO GO TO PREVIOUS BULLETINS.

The Nexlab CO Page
The Nexlab UT Page Main Text Page